createdAt,value
2018-03-24T10:46:05.294Z,67.80
2018-03-24T10:48:33.747Z,68.30
2018-03-24T10:54:39.757Z,80.70
2018-03-24T10:57:08.335Z,75.10
2018-03-24T10:59:37.538Z,68.10
2018-03-24T11:02:06.017Z,67.90
2018-03-24T11:04:34.463Z,68.20
2018-03-24T11:07:02.872Z,68.10
2018-03-24T11:09:31.770Z,67.60
2018-03-24T11:12:00.342Z,66.30
2018-03-24T11:14:30.149Z,65.00
2018-03-24T11:16:58.715Z,63.90
2018-03-24T11:22:00.319Z,63.10
2018-03-24T11:24:28.745Z,62.60
2018-03-24T11:26:57.968Z,61.60
2018-03-24T11:29:27.242Z,61.10
2018-03-24T11:31:55.683Z,61.00
2018-03-24T11:34:24.249Z,60.50
2018-03-24T11:36:53.397Z,60.80
2018-03-24T11:39:22.338Z,60.80
2018-03-24T11:41:50.732Z,60.00
2018-03-24T11:44:19.302Z,59.40
2018-03-24T11:46:48.108Z,58.10
2018-03-24T11:49:16.583Z,57.60
2018-03-24T11:51:45.149Z,57.50
2018-03-24T11:54:13.835Z,56.60
2018-03-24T11:56:43.139Z,55.60
2018-03-24T11:59:11.553Z,55.00
2018-03-24T12:01:39.961Z,55.10
2018-03-24T12:04:09.190Z,55.00
2018-03-24T12:06:37.575Z,54.40
2018-03-24T12:09:06.165Z,54.30
2018-03-24T12:11:34.573Z,54.20
2018-03-24T12:14:02.955Z,54.50
2018-03-24T12:16:31.387Z,55.20
2018-03-24T12:19:00.689Z,54.60
2018-03-24T12:21:29.951Z,53.80
2018-03-24T12:23:58.480Z,53.90
2018-03-24T12:26:26.873Z,53.70
2018-03-24T12:28:55.538Z,53.60
2018-03-24T12:31:24.121Z,53.50
2018-03-24T12:33:52.704Z,53.40
2018-03-24T12:36:22.295Z,52.80
2018-03-24T12:38:51.489Z,52.70
2018-03-24T12:41:20.648Z,52.20
2018-03-24T12:43:49.289Z,52.10
2018-03-24T12:46:18.580Z,53.10
2018-03-24T12:48:47.172Z,53.10
2018-03-24T12:51:15.551Z,52.90
2018-03-24T12:53:44.134Z,52.70
2018-03-24T12:56:12.520Z,53.20
2018-03-24T12:58:41.194Z,52.70
2018-03-24T13:01:09.778Z,52.80
2018-03-24T13:03:38.198Z,52.70
2018-03-24T13:06:06.673Z,52.10
2018-03-24T13:08:35.218Z,52.90
2018-03-24T13:11:09.348Z,51.80
2018-03-24T13:13:37.917Z,51.80
2018-03-24T13:16:06.599Z,52.20
2018-03-24T13:18:35.900Z,52.10
2018-03-24T13:21:04.482Z,52.00
2018-03-24T13:23:33.628Z,51.90
2018-03-24T13:26:02.039Z,52.00
2018-03-24T13:28:31.461Z,52.70
2018-03-24T13:30:59.883Z,52.70
2018-03-24T13:33:28.425Z,52.70
2018-03-24T13:35:58.238Z,52.90
2018-03-24T13:38:26.820Z,52.90
2018-03-24T13:40:55.206Z,53.20
2018-03-24T13:43:23.778Z,53.30
2018-03-24T13:45:52.361Z,52.70
2018-03-24T13:48:21.359Z,53.30
2018-03-24T13:50:49.936Z,52.80
2018-03-24T13:53:18.521Z,52.50
2018-03-24T13:55:47.106Z,52.60
2018-03-24T13:58:15.504Z,52.60
2018-03-24T14:00:49.401Z,51.70
2018-03-24T14:03:17.806Z,51.30
2018-03-24T14:05:46.457Z,51.70
2018-03-24T14:08:19.726Z,51.20
2018-03-24T14:10:48.248Z,51.50
2018-03-24T14:13:16.639Z,51.80
2018-03-24T14:15:45.081Z,51.50
2018-03-24T14:18:14.398Z,51.00
2018-03-24T14:20:42.969Z,51.00
2018-03-24T14:23:11.554Z,51.90
2018-03-24T14:25:40.052Z,52.70
2018-03-24T14:28:08.942Z,51.80
2018-03-24T14:30:37.402Z,51.40
2018-03-24T14:33:06.552Z,50.70
2018-03-24T14:35:34.988Z,50.60
2018-03-24T14:38:03.562Z,49.50
2018-03-24T14:40:32.708Z,48.10
2018-03-24T14:43:01.347Z,48.10
2018-03-24T14:45:30.100Z,48.70
2018-03-24T14:47:58.486Z,48.80
2018-03-24T14:50:26.864Z,48.20
2018-03-24T14:52:56.706Z,47.80
2018-03-24T14:55:25.213Z,47.80
2018-03-24T14:57:53.631Z,47.90
2018-03-24T15:00:22.245Z,49.30
2018-03-24T15:02:50.660Z,48.40
2018-03-24T15:05:19.074Z,47.70
2018-03-24T15:07:47.689Z,47.70
2018-03-24T15:10:16.899Z,47.80
2018-03-24T15:12:45.569Z,47.60
2018-03-24T15:15:14.100Z,47.80
2018-03-24T15:17:42.537Z,48.20
2018-03-24T15:20:11.113Z,48.60
2018-03-24T15:22:39.701Z,48.30
2018-03-24T15:25:08.280Z,48.30
2018-03-24T15:27:36.732Z,48.30
2018-03-24T15:30:18.862Z,48.00
2018-03-24T15:32:52.252Z,48.00
2018-03-24T15:35:33.648Z,47.90
2018-03-24T15:38:02.848Z,48.10
2018-03-24T15:40:31.340Z,48.00
2018-03-24T15:42:59.813Z,48.20
2018-03-24T15:45:28.384Z,48.40
2018-03-24T15:47:56.763Z,49.00
2018-03-24T15:50:25.756Z,49.50
2018-03-24T15:52:54.249Z,49.80
2018-03-24T15:55:22.731Z,49.50
2018-03-24T15:57:51.184Z,49.90
2018-03-24T16:00:20.384Z,50.10
2018-03-24T16:02:48.980Z,50.00
2018-03-24T16:05:17.561Z,50.00
2018-03-24T16:07:46.556Z,49.80
2018-03-24T16:10:15.136Z,50.40
2018-03-24T16:12:43.717Z,50.80
2018-03-24T16:15:12.254Z,50.80
2018-03-24T16:17:40.620Z,50.90
2018-03-24T16:20:09.070Z,51.80
2018-03-24T16:22:37.514Z,51.80
2018-03-24T16:25:06.860Z,52.20
2018-03-24T16:27:37.493Z,52.20
2018-03-24T16:30:07.596Z,52.50
2018-03-24T16:32:36.278Z,52.50
2018-03-24T16:35:04.856Z,53.20
2018-03-24T16:37:33.404Z,53.20
2018-03-24T16:40:02.025Z,53.40
2018-03-24T16:42:30.606Z,53.60
2018-03-24T16:45:01.049Z,53.20
2018-03-24T16:47:29.535Z,53.30
2018-03-24T16:49:57.983Z,53.90
2018-03-24T16:52:27.298Z,54.20
2018-03-24T16:54:55.773Z,54.30
2018-03-24T16:57:24.220Z,54.80
2018-03-24T16:59:52.600Z,55.10
2018-03-24T17:02:21.037Z,54.80
2018-03-24T17:04:49.482Z,55.40
2018-03-24T17:07:18.792Z,55.30
2018-03-24T17:09:47.269Z,55.30
2018-03-24T17:12:16.483Z,55.60
2018-03-24T17:14:45.056Z,55.60
2018-03-24T17:17:13.637Z,55.60
2018-03-24T17:19:42.032Z,55.60
2018-03-24T17:22:10.595Z,55.80
2018-03-24T17:24:38.996Z,56.30
2018-03-24T17:27:07.424Z,56.50
2018-03-24T17:29:36.349Z,56.60
2018-03-24T17:32:04.941Z,57.20
2018-03-24T17:34:33.408Z,57.30
2018-03-24T17:37:02.993Z,57.30
2018-03-24T17:39:31.394Z,57.30
2018-03-24T17:41:59.979Z,57.70
2018-03-24T17:44:28.590Z,57.60
2018-03-24T17:46:57.151Z,58.30
2018-03-24T17:49:25.801Z,58.70
2018-03-24T17:51:59.244Z,58.20
2018-03-24T17:54:27.727Z,58.30
2018-03-24T17:56:56.203Z,58.80
2018-03-24T17:59:24.780Z,58.60
2018-03-24T18:01:53.266Z,58.60
2018-03-24T18:04:21.675Z,59.10
2018-03-24T18:06:50.320Z,59.90
2018-03-24T18:09:19.001Z,60.40
2018-03-24T18:11:47.409Z,61.20
2018-03-24T18:14:15.864Z,61.80
2018-03-24T18:16:44.252Z,62.10
2018-03-24T18:19:12.724Z,62.60
2018-03-24T18:21:41.222Z,63.40
2018-03-24T18:24:09.787Z,63.70
2018-03-24T18:26:38.369Z,64.00
2018-03-24T18:29:06.803Z,64.40
2018-03-24T18:31:35.327Z,65.10
2018-03-24T18:34:03.928Z,65.60
2018-03-24T18:36:32.497Z,65.70
2018-03-24T18:39:00.891Z,66.30
2018-03-24T18:41:29.562Z,66.80
2018-03-24T18:43:58.139Z,67.20
2018-03-24T18:46:27.464Z,67.80
2018-03-24T18:48:56.025Z,68.10
2018-03-24T18:51:24.436Z,68.20
2018-03-24T18:53:53.094Z,68.60
2018-03-24T18:56:21.674Z,68.80
2018-03-24T18:58:50.078Z,69.50
2018-03-24T19:01:19.046Z,70.00
2018-03-24T19:03:47.431Z,70.20
2018-03-24T19:06:18.553Z,70.80
2018-03-24T19:08:47.890Z,71.10
2018-03-24T19:11:16.267Z,71.30
2018-03-24T19:13:44.651Z,71.60
2018-03-24T19:16:13.084Z,71.70
2018-03-24T19:18:42.403Z,72.90
2018-03-24T19:21:11.192Z,73.30
2018-03-24T19:23:39.776Z,73.00
2018-03-24T19:26:08.356Z,73.60
2018-03-24T19:28:36.778Z,73.80
2018-03-24T19:31:05.335Z,73.90
2018-03-24T19:33:34.180Z,74.10
2018-03-24T19:36:02.565Z,74.30
2018-03-24T19:38:34.815Z,74.30
2018-03-24T19:41:04.154Z,74.70
2018-03-24T19:43:37.472Z,74.90
2018-03-24T19:46:06.024Z,75.10
2018-03-24T19:48:35.435Z,76.20
2018-03-24T19:51:04.926Z,76.80
2018-03-24T19:53:34.445Z,77.20
2018-03-24T19:56:02.960Z,77.60
2018-03-24T19:58:31.939Z,77.80
2018-03-24T20:01:00.708Z,78.00
2018-03-24T20:03:29.177Z,78.90
2018-03-24T20:05:58.790Z,79.30
2018-03-24T20:08:28.187Z,80.50
2018-03-24T20:10:57.397Z,80.80
2018-03-24T20:13:26.304Z,80.90
2018-03-24T20:15:55.487Z,80.80
2018-03-24T20:18:24.298Z,81.00
2018-03-24T20:20:52.847Z,81.90
2018-03-24T20:23:21.436Z,82.60
2018-03-24T20:25:50.219Z,82.80
2018-03-24T20:28:18.798Z,83.10
2018-03-24T20:30:47.382Z,83.40
2018-03-24T20:33:16.949Z,84.00
2018-03-24T20:35:49.645Z,84.40
2018-03-24T20:38:19.889Z,85.20
2018-03-24T20:40:48.685Z,85.60
2018-03-24T20:43:17.268Z,85.10
2018-03-24T20:45:45.906Z,85.00
2018-03-24T20:48:14.280Z,85.60
2018-03-24T20:50:43.120Z,85.70
2018-03-24T20:53:11.900Z,85.70
2018-03-24T20:55:40.585Z,87.10
2018-03-24T20:58:09.107Z,86.70
2018-03-24T21:00:39.135Z,87.50
2018-03-24T21:03:07.876Z,87.90
2018-03-24T21:05:36.344Z,87.50
2018-03-24T21:08:05.961Z,88.80
2018-03-24T21:10:34.748Z,89.00
2018-03-24T21:13:03.914Z,88.70
2018-03-24T21:15:33.151Z,89.00
2018-03-24T21:18:02.019Z,89.20
2018-03-24T21:20:30.542Z,89.10
2018-03-24T21:22:59.104Z,90.00
2018-03-24T21:25:27.774Z,90.10
2018-03-24T21:27:57.087Z,90.40
2018-03-24T21:30:26.384Z,90.50
2018-03-24T21:32:54.879Z,90.70
2018-03-24T21:35:23.446Z,90.70
2018-03-24T21:37:52.631Z,90.80
2018-03-24T21:40:21.229Z,90.90
2018-03-24T21:42:49.813Z,90.90
2018-03-24T21:45:18.223Z,90.90
2018-03-24T21:47:46.693Z,90.90
2018-03-24T21:50:15.276Z,91.10
2018-03-24T21:52:43.656Z,91.20
2018-03-24T21:55:12.077Z,91.50
2018-03-24T21:57:40.701Z,91.50
2018-03-24T22:00:10.099Z,91.80
2018-03-24T22:02:39.238Z,91.80
2018-03-24T22:05:07.883Z,91.90
2018-03-24T22:07:37.178Z,91.90
2018-03-24T22:10:06.495Z,92.00
2018-03-24T22:12:34.892Z,92.10
2018-03-24T22:15:03.308Z,91.70
2018-03-24T22:17:31.765Z,91.70
2018-03-24T22:20:00.301Z,92.10
2018-03-24T22:22:28.697Z,92.20
2018-03-24T22:24:57.116Z,92.20
2018-03-24T22:27:25.639Z,91.90
2018-03-24T22:29:54.940Z,92.40
2018-03-24T22:32:24.144Z,92.50
2018-03-24T22:34:52.728Z,92.60
2018-03-24T22:37:21.123Z,92.30
2018-03-24T22:39:49.735Z,92.30
2018-03-24T22:42:18.688Z,92.50
2018-03-24T22:44:47.071Z,92.50
2018-03-24T22:47:15.451Z,92.50
2018-03-24T22:49:44.732Z,92.30
2018-03-24T22:52:13.138Z,92.50
2018-03-24T22:54:41.581Z,92.40
2018-03-24T22:57:10.796Z,93.10
2018-03-24T22:59:39.373Z,93.20
2018-03-24T23:02:08.132Z,93.00
2018-03-24T23:04:38.091Z,93.10
2018-03-24T23:07:06.654Z,93.20
2018-03-24T23:09:35.244Z,93.30
2018-03-24T23:12:04.479Z,93.60
2018-03-24T23:14:32.854Z,93.70
2018-03-24T23:17:01.716Z,93.80
2018-03-24T23:19:30.183Z,94.40
2018-03-24T23:21:59.330Z,93.80
2018-03-24T23:24:27.791Z,93.90
2018-03-24T23:26:56.343Z,94.00
2018-03-24T23:29:25.199Z,94.30
2018-03-24T23:31:53.586Z,94.30
2018-03-24T23:34:22.147Z,94.10
2018-03-24T23:36:50.981Z,94.40
2018-03-24T23:39:20.282Z,94.40
2018-03-24T23:41:49.426Z,94.60
2018-03-24T23:44:17.849Z,94.80
2018-03-24T23:46:47.264Z,94.60
2018-03-24T23:49:15.856Z,94.70
2018-03-24T23:51:44.432Z,94.90
2018-03-24T23:54:13.007Z,94.90
2018-03-24T23:56:41.394Z,94.80
2018-03-24T23:59:10.607Z,94.70
